Time;durP1;ratioP1;P1;durP2;ratioP2;P2;SDS_P1;SDS_P2;PMS_P1;PMS_P2;Temp;Humidity;BMP_temperature;BMP_pressure;BME280_temperature;BME280_humidity;BME280_pressure;Samples;Min_cycle;Max_cycle;Signal;HPM_P1;HPM_P2
2023/05/27 00:01:58;;;;;;;7.07;5.93;;;12.70;24.40;;;;;;5012330;28;20506;-69
2023/05/27 00:04:23;;;;;;;9.00;6.43;;;12.60;24.40;;;;;;5012304;28;20205;-69
2023/05/27 00:06:49;;;;;;;11.87;6.10;;;12.60;24.60;;;;;;5012338;28;20184;-69
2023/05/27 00:09:14;;;;;;;7.60;6.47;;;12.60;24.60;;;;;;5012250;28;20189;-69
2023/05/27 00:11:40;;;;;;;8.60;6.50;;;12.60;24.60;;;;;;5011785;28;20692;-70
2023/05/27 00:14:06;;;;;;;6.33;5.40;;;12.50;25.50;;;;;;5036552;22;20443;-69
2023/05/27 00:16:35;;;;;;;9.70;6.47;;;12.50;25.80;;;;;;5012096;28;20212;-69
2023/05/27 00:19:01;;;;;;;11.83;6.40;;;12.40;26.60;;;;;;5012111;28;20164;-68
2023/05/27 00:21:27;;;;;;;10.20;6.80;;;12.40;25.90;;;;;;5010777;28;20451;-69
2023/05/27 00:23:52;;;;;;;11.60;7.43;;;12.40;26.20;;;;;;5030941;28;20486;-69
2023/05/27 00:26:18;;;;;;;7.40;6.50;;;12.40;26.30;;;;;;5031763;28;20226;-69
2023/05/27 00:28:44;;;;;;;9.07;6.80;;;12.30;26.50;;;;;;5031546;28;20183;-69
2023/05/27 00:31:09;;;;;;;10.60;6.93;;;12.20;26.70;;;;;;5031699;28;20580;-68
2023/05/27 00:33:35;;;;;;;10.93;7.17;;;12.20;27.00;;;;;;5031253;28;20199;-69
2023/05/27 00:36:00;;;;;;;9.23;6.67;;;12.20;26.80;;;;;;5023301;28;20542;-69
2023/05/27 00:38:26;;;;;;;6.67;5.37;;;12.20;26.90;;;;;;5012082;28;20593;-69
2023/05/27 00:40:53;;;;;;;18.23;6.67;;;12.20;26.70;;;;;;5011821;28;20216;-69
2023/05/27 00:43:19;;;;;;;10.50;6.57;;;12.20;27.00;;;;;;5011626;28;20684;-73
2023/05/27 00:45:45;;;;;;;12.93;6.67;;;12.10;27.50;;;;;;5011965;28;20415;-72
2023/05/27 00:48:11;;;;;;;8.40;6.13;;;12.10;27.30;;;;;;5011998;28;20425;-72
2023/05/27 00:50:36;;;;;;;8.03;6.20;;;12.10;27.10;;;;;;5028343;28;20195;-72
2023/05/27 00:53:02;;;;;;;11.43;6.50;;;12.00;27.80;;;;;;5031178;28;20428;-71
2023/05/27 00:55:28;;;;;;;8.03;5.77;;;12.00;28.10;;;;;;5031656;28;20311;-71
2023/05/27 00:57:54;;;;;;;10.00;6.83;;;11.90;28.00;;;;;;5035405;28;20517;-70
2023/05/27 01:00:21;;;;;;;13.93;7.40;;;11.90;28.00;;;;;;5035954;28;20959;-72
2023/05/27 01:02:46;;;;;;;9.80;8.30;;;11.80;28.00;;;;;;5029255;28;20188;-72
2023/05/27 01:05:15;;;;;;;10.77;7.37;;;11.80;28.70;;;;;;5015400;28;20801;-72
2023/05/27 01:07:50;;;;;;;8.80;6.20;;;11.80;28.50;;;;;;5015521;28;20301;-71
2023/05/27 01:10:28;;;;;;;8.23;7.40;;;11.70;28.50;;;;;;5015476;28;20880;-72
2023/05/27 01:13:01;;;;;;;11.07;8.37;;;11.70;29.30;;;;;;5016374;28;20430;-72
2023/05/27 01:15:28;;;;;;;9.40;6.90;;;11.60;29.20;;;;;;4997600;28;20466;-71
2023/05/27 01:17:56;;;;;;;10.30;6.03;;;11.50;30.50;;;;;;5016856;28;20411;-72
2023/05/27 01:20:23;;;;;;;9.67;7.13;;;11.50;29.60;;;;;;5035057;28;20449;-72
2023/05/27 01:22:52;;;;;;;12.80;8.50;;;11.50;29.80;;;;;;5034749;28;20896;-71
2023/05/27 01:25:21;;;;;;;12.03;7.37;;;11.50;30.00;;;;;;5034926;28;20483;-71
2023/05/27 01:27:46;;;;;;;9.47;6.87;;;11.40;29.90;;;;;;5034907;28;20858;-72
2023/05/27 01:30:12;;;;;;;9.77;7.30;;;11.30;31.00;;;;;;5034843;28;20446;-72
2023/05/27 01:33:06;;;;;;;10.17;7.37;;;11.30;31.80;;;;;;5032553;28;20179;-71
2023/05/27 01:35:38;;;;;;;9.10;5.97;;;11.30;31.70;;;;;;5006427;28;20837;-72
2023/05/27 01:38:07;;;;;;;11.57;6.60;;;11.20;31.00;;;;;;5015089;28;20414;-72
2023/05/27 01:40:34;;;;;;;8.50;6.43;;;11.20;32.00;;;;;;5015160;28;20431;-71
2023/05/27 01:43:00;;;;;;;7.77;6.13;;;11.20;32.00;;;;;;5014528;28;20422;-71
2023/05/27 01:45:26;;;;;;;9.73;7.07;;;11.10;33.00;;;;;;5020122;28;20429;-71
2023/05/27 01:47:51;;;;;;;9.03;7.07;;;11.10;32.50;;;;;;5034457;28;20463;-70
2023/05/27 01:50:17;;;;;;;8.00;6.63;;;11.00;31.80;;;;;;5034585;28;20629;-72
2023/05/27 01:52:44;;;;;;;13.53;6.60;;;11.00;32.70;;;;;;5016654;28;20191;-71
2023/05/27 01:55:10;;;;;;;8.77;5.93;;;11.00;32.70;;;;;;5034607;28;20491;-71
2023/05/27 01:57:35;;;;;;;8.03;6.77;;;10.90;33.00;;;;;;5034926;28;20225;-71
2023/05/27 02:00:01;;;;;;;9.20;6.33;;;10.90;33.10;;;;;;5021341;28;20522;-71
2023/05/27 02:02:26;;;;;;;10.00;7.53;;;10.80;33.70;;;;;;5015987;28;20188;-71
2023/05/27 02:04:52;;;;;;;8.90;6.70;;;10.80;32.90;;;;;;4998494;28;20215;-71
2023/05/27 02:07:19;;;;;;;10.83;7.10;;;10.70;33.40;;;;;;5014397;28;20539;-72
2023/05/27 02:09:45;;;;;;;8.87;6.47;;;10.70;32.90;;;;;;5016233;28;20253;-71
2023/05/27 02:12:11;;;;;;;9.53;7.00;;;10.70;34.00;;;;;;5015683;28;20442;-71
2023/05/27 02:14:38;;;;;;;10.47;7.27;;;10.60;34.10;;;;;;5034351;28;20559;-71
2023/05/27 02:17:05;;;;;;;11.10;8.00;;;10.60;34.50;;;;;;5033920;28;20253;-71
2023/05/27 02:19:30;;;;;;;11.30;7.27;;;10.50;35.40;;;;;;5016444;28;20781;-71
2023/05/27 02:21:56;;;;;;;10.90;6.60;;;10.40;36.50;;;;;;5033565;28;20449;-72
2023/05/27 02:24:21;;;;;;;10.67;7.00;;;10.40;36.00;;;;;;5022816;28;20219;-71
2023/05/27 02:26:47;;;;;;;11.50;6.67;;;10.40;36.50;;;;;;4996513;28;20186;-71
2023/05/27 02:29:12;;;;;;;10.27;8.03;;;10.40;36.60;;;;;;5014066;28;20291;-72
2023/05/27 02:31:38;;;;;;;10.10;7.93;;;10.40;36.50;;;;;;5013676;28;20182;-71
2023/05/27 02:34:03;;;;;;;10.57;8.40;;;10.40;36.50;;;;;;4995924;28;20641;-71
2023/05/27 02:36:29;;;;;;;11.87;7.87;;;10.40;36.50;;;;;;5013548;28;20270;-71
2023/05/27 02:38:55;;;;;;;7.80;6.00;;;10.30;36.50;;;;;;5028858;28;20644;-71
2023/05/27 02:41:21;;;;;;;11.00;6.80;;;10.30;36.20;;;;;;5013616;28;20188;-71
2023/05/27 02:43:46;;;;;;;9.33;6.73;;;10.20;36.50;;;;;;4995589;28;20212;-71
2023/05/27 02:46:12;;;;;;;11.47;7.20;;;10.20;36.40;;;;;;5013581;28;20430;-72
2023/05/27 02:48:37;;;;;;;11.87;8.67;;;10.20;36.20;;;;;;5013632;28;20283;-71
2023/05/27 02:51:03;;;;;;;9.30;6.13;;;10.20;36.00;;;;;;5021659;28;20210;-71
2023/05/27 02:53:29;;;;;;;14.23;7.67;;;10.10;35.30;;;;;;5033072;28;20715;-71
2023/05/27 02:55:54;;;;;;;10.30;6.47;;;10.10;34.80;;;;;;5033313;28;20233;-71
2023/05/27 02:58:20;;;;;;;11.00;6.60;;;10.10;34.60;;;;;;5015303;28;20175;-72
2023/05/27 03:00:45;;;;;;;14.00;7.40;;;10.00;34.90;;;;;;5033005;28;20241;-69
2023/05/27 03:03:11;;;;;;;7.87;6.03;;;10.00;35.30;;;;;;5014704;28;20206;-69
2023/05/27 03:05:37;;;;;;;7.73;5.53;;;10.00;34.50;;;;;;5025511;28;20196;-68
2023/05/27 03:08:05;;;;;;;10.13;6.43;;;9.90;36.40;;;;;;5012904;28;20668;-69
2023/05/27 03:10:34;;;;;;;8.03;6.13;;;9.90;37.40;;;;;;5012820;28;20187;-69
2023/05/27 03:13:00;;;;;;;12.20;7.20;;;9.80;36.20;;;;;;4994710;28;20435;-69
2023/05/27 03:15:28;;;;;;;8.47;6.57;;;9.80;36.50;;;;;;5012662;28;20564;-69
2023/05/27 03:17:54;;;;;;;10.03;6.60;;;9.80;37.00;;;;;;5012895;28;20266;-68
2023/05/27 03:20:19;;;;;;;8.27;6.70;;;9.70;36.90;;;;;;5028635;28;20871;-69
2023/05/27 03:22:45;;;;;;;11.87;6.60;;;9.70;37.40;;;;;;5032289;28;20175;-69
2023/05/27 03:25:11;;;;;;;10.60;7.17;;;9.70;37.20;;;;;;5032422;28;20210;-69
2023/05/27 03:27:37;;;;;;;8.43;6.20;;;9.70;38.00;;;;;;5032296;28;20642;-69
2023/05/27 03:30:05;;;;;;;10.63;7.27;;;9.70;38.20;;;;;;5032239;28;20513;-69
2023/05/27 03:32:30;;;;;;;11.97;6.33;;;9.70;37.70;;;;;;5032020;28;20185;-68
2023/05/27 03:34:56;;;;;;;11.73;7.17;;;9.70;37.90;;;;;;5016260;28;20477;-69
2023/05/27 03:37:21;;;;;;;11.67;6.50;;;9.60;37.40;;;;;;5012915;28;20225;-69
2023/05/27 03:39:47;;;;;;;11.77;6.60;;;9.60;37.40;;;;;;5012622;28;20648;-69
2023/05/27 03:42:13;;;;;;;12.80;6.23;;;9.60;36.80;;;;;;5012217;28;20183;-69
2023/05/27 03:44:38;;;;;;;13.93;8.17;;;9.60;36.80;;;;;;5012270;28;20202;-69
2023/05/27 03:47:05;;;;;;;8.70;7.23;;;9.60;37.30;;;;;;5031187;28;20652;-69
2023/05/27 03:49:30;;;;;;;8.20;5.13;;;9.60;37.40;;;;;;5032100;28;20223;-69
2023/05/27 03:51:56;;;;;;;12.70;6.40;;;9.50;36.90;;;;;;5031775;28;21087;-69
2023/05/27 03:54:22;;;;;;;9.13;6.80;;;9.50;37.50;;;;;;5031867;28;20522;-68
2023/05/27 03:56:48;;;;;;;6.47;5.00;;;9.50;36.70;;;;;;5031919;28;20425;-69
2023/05/27 03:59:14;;;;;;;8.47;5.70;;;9.60;36.80;;;;;;5023554;28;20918;-69
2023/05/27 04:01:41;;;;;;;6.67;5.80;;;9.70;35.90;;;;;;5012103;28;20182;-69
2023/05/27 04:04:06;;;;;;;7.60;6.03;;;9.70;35.70;;;;;;4994535;28;20447;-69
2023/05/27 04:06:33;;;;;;;9.33;6.60;;;9.70;35.90;;;;;;5012368;28;20414;-69
2023/05/27 04:08:59;;;;;;;9.50;5.80;;;9.80;34.30;;;;;;5012318;28;20317;-69
2023/05/27 04:11:27;;;;;;;11.43;5.83;;;9.90;34.40;;;;;;5012066;28;20446;-68
2023/05/27 04:13:53;;;;;;;10.47;6.70;;;9.90;34.70;;;;;;5018511;28;20254;-69
2023/05/27 04:16:18;;;;;;;9.83;5.93;;;9.90;33.50;;;;;;5031850;28;20425;-70
2023/05/27 04:18:48;;;;;;;7.20;5.73;;;10.00;33.00;;;;;;5032260;28;20405;-71
2023/05/27 04:21:24;;;;;;;11.50;5.87;;;10.00;32.60;;;;;;5033024;28;20250;-70
2023/05/27 04:23:49;;;;;;;8.87;5.83;;;10.10;32.50;;;;;;5015142;28;20989;-69
2023/05/27 04:26:15;;;;;;;10.47;7.47;;;10.10;31.00;;;;;;5033415;28;20417;-73
2023/05/27 04:28:41;;;;;;;12.70;6.47;;;10.20;31.10;;;;;;5014875;28;20574;-73
2023/05/27 04:31:12;;;;;;;8.83;6.40;;;10.30;30.10;;;;;;5014037;28;20266;-72
2023/05/27 04:33:39;;;;;;;11.53;5.23;;;10.40;29.40;;;;;;5017788;28;20954;-73
2023/05/27 04:36:06;;;;;;;9.77;6.90;;;10.50;29.00;;;;;;5002679;28;20468;-72
2023/05/27 04:38:31;;;;;;;10.37;5.53;;;10.50;29.60;;;;;;5017161;28;20608;-72
2023/05/27 04:40:59;;;;;;;8.90;5.53;;;10.60;28.50;;;;;;5034056;28;20421;-72
2023/05/27 04:43:26;;;;;;;14.20;6.30;;;10.60;28.10;;;;;;5035702;28;20194;-70
2023/05/27 04:45:52;;;;;;;9.87;7.00;;;10.70;27.90;;;;;;5035990;28;20417;-73
2023/05/27 04:48:19;;;;;;;11.20;5.17;;;10.80;27.60;;;;;;5018006;28;20424;-72
2023/05/27 04:50:45;;;;;;;14.17;7.07;;;10.90;27.30;;;;;;5036051;28;20406;-73
2023/05/27 04:53:11;;;;;;;12.00;7.90;;;11.10;26.10;;;;;;5028067;28;20977;-72
2023/05/27 04:55:38;;;;;;;12.73;6.23;;;11.10;25.80;;;;;;5016081;28;20455;-70
2023/05/27 04:58:05;;;;;;;8.23;5.80;;;11.30;24.70;;;;;;4998196;28;20551;-72
2023/05/27 05:00:49;;;;;;;8.07;6.23;;;11.50;24.90;;;;;;4999616;28;20783;-72
2023/05/27 05:03:39;;;;;;;8.60;5.00;;;11.60;23.60;;;;;;5020825;28;20433;-70
2023/05/27 05:06:05;;;;;;;10.67;6.37;;;11.80;23.20;;;;;;5036620;28;20406;-72
2023/05/27 05:08:31;;;;;;;16.83;7.27;;;11.90;21.80;;;;;;5038647;28;20838;-69
2023/05/27 05:10:57;;;;;;;12.07;6.47;;;12.10;21.00;;;;;;5038359;28;20452;-70
2023/05/27 05:13:22;;;;;;;6.90;4.93;;;12.30;20.10;;;;;;5036777;28;20449;-71
2023/05/27 05:15:48;;;;;;;8.23;6.03;;;12.30;20.10;;;;;;5036563;28;20505;-70
2023/05/27 05:18:13;;;;;;;9.33;6.07;;;12.40;20.00;;;;;;5019539;28;20251;-70
2023/05/27 05:20:39;;;;;;;10.10;4.90;;;12.50;19.70;;;;;;5016057;28;20184;-70
2023/05/27 05:23:07;;;;;;;9.77;5.80;;;12.60;19.30;;;;;;5015743;28;20268;-69
2023/05/27 05:25:37;;;;;;;8.90;5.23;;;12.80;18.60;;;;;;5015667;28;20185;-70
2023/05/27 05:28:04;;;;;;;12.70;6.57;;;13.00;18.00;;;;;;5015648;28;20969;-70
2023/05/27 05:30:31;;;;;;;9.33;6.60;;;13.70;14.80;;;;;;4997815;28;20506;-69
2023/05/27 05:32:57;;;;;;;7.87;5.17;;;14.70;12.90;;;;;;5031933;28;20917;-74
2023/05/27 05:35:23;;;;;;;8.37;5.00;;;15.60;9.30;;;;;;5036918;28;20464;-73
2023/05/27 05:37:49;;;;;;;6.37;4.50;;;16.70;7.30;;;;;;5035211;28;20493;-71
2023/05/27 05:40:14;;;;;;;8.37;5.50;;;18.30;4.10;;;;;;5017333;28;20186;-71
2023/05/27 05:42:40;;;;;;;8.80;5.10;;;19.50;1.00;;;;;;5008704;28;20435;-74
2023/05/27 05:45:06;;;;;;;8.43;5.80;;;19.40;1.00;;;;;;4993369;28;20211;-71
2023/05/27 05:47:32;;;;;;;7.20;5.30;;;19.60;1.00;;;;;;5031355;28;20531;-72
2023/05/27 05:49:58;;;;;;;6.50;5.00;;;20.00;1.00;;;;;;4995127;28;20760;-71
2023/05/27 05:52:24;;;;;;;7.73;5.43;;;20.00;1.00;;;;;;4994708;28;20486;-71
2023/05/27 05:54:49;;;;;;;5.83;4.10;;;21.30;1.00;;;;;;4993728;28;20200;-71
2023/05/27 05:57:15;;;;;;;13.87;6.13;;;22.90;1.00;;;;;;4995086;28;20181;-71
2023/05/27 05:59:41;;;;;;;7.20;4.97;;;23.40;1.00;;;;;;4999593;28;20175;-71
2023/05/27 06:02:07;;;;;;;9.30;6.57;;;22.70;1.00;;;;;;4994656;28;20963;-71
2023/05/27 06:04:32;;;;;;;8.90;5.57;;;23.30;1.00;;;;;;4994900;28;20243;-70
2023/05/27 06:06:58;;;;;;;16.70;5.90;;;23.10;1.00;;;;;;4993503;28;20184;-71
2023/05/27 06:09:25;;;;;;;10.97;7.17;;;24.20;1.00;;;;;;4995232;28;20176;-71
2023/05/27 06:11:50;;;;;;;10.33;5.77;;;25.30;1.00;;;;;;4977273;28;20183;-70
2023/05/27 06:14:16;;;;;;;12.37;6.23;;;26.20;1.00;;;;;;5020498;28;20470;-72
2023/05/27 06:16:41;;;;;;;11.50;7.13;;;27.00;1.00;;;;;;5021958;28;20678;-73
2023/05/27 06:19:07;;;;;;;6.13;5.40;;;27.70;1.00;;;;;;4996734;28;20186;-73
2023/05/27 06:21:33;;;;;;;7.03;6.10;;;28.10;1.00;;;;;;5014109;28;20206;-74
2023/05/27 06:23:59;;;;;;;6.60;6.00;;;28.80;1.00;;;;;;4996340;28;20677;-72
2023/05/27 06:26:27;;;;;;;8.40;5.80;;;28.70;1.00;;;;;;5014062;28;20556;-73
2023/05/27 06:28:52;;;;;;;7.90;5.33;;;28.50;1.00;;;;;;5014274;28;20442;-73
2023/05/27 06:31:18;;;;;;;6.73;5.80;;;28.40;1.00;;;;;;5014118;28;20780;-72
2023/05/27 06:33:44;;;;;;;6.00;5.37;;;28.60;1.00;;;;;;5014088;28;20206;-73
2023/05/27 06:36:09;;;;;;;9.07;6.93;;;28.50;1.00;;;;;;5012649;28;20204;-71
2023/05/27 06:38:35;;;;;;;9.40;6.20;;;27.90;1.00;;;;;;4994323;28;20188;-68
2023/05/27 06:41:00;;;;;;;6.47;5.80;;;27.80;1.00;;;;;;5005248;28;20180;-70
2023/05/27 06:43:26;;;;;;;6.60;5.80;;;28.40;1.00;;;;;;5032754;28;20208;-70
2023/05/27 06:45:52;;;;;;;8.07;6.37;;;29.20;1.00;;;;;;5033225;28;20558;-70
2023/05/27 06:48:17;;;;;;;13.10;6.43;;;29.50;1.00;;;;;;5033459;28;20172;-70
2023/05/27 06:50:43;;;;;;;7.30;6.60;;;29.10;1.00;;;;;;5033043;28;20210;-68
2023/05/27 06:53:10;;;;;;;7.93;6.17;;;30.00;1.00;;;;;;5036390;28;20257;-69
2023/05/27 06:55:36;;;;;;;10.37;7.03;;;29.50;1.00;;;;;;5028028;28;20222;-69
2023/05/27 06:58:05;;;;;;;7.37;5.43;;;30.10;1.00;;;;;;5013649;28;20415;-69
2023/05/27 07:00:31;;;;;;;7.90;6.27;;;29.60;1.00;;;;;;5013302;28;20262;-69
2023/05/27 07:02:56;;;;;;;6.30;5.70;;;29.90;1.00;;;;;;5013507;28;20814;-69
2023/05/27 07:05:22;;;;;;;6.93;6.23;;;29.10;1.00;;;;;;5012866;28;20180;-68
2023/05/27 07:07:47;;;;;;;15.10;7.27;;;29.30;1.00;;;;;;5012981;28;20646;-69
2023/05/27 07:10:13;;;;;;;11.07;7.37;;;30.20;1.00;;;;;;5013544;28;20491;-69
2023/05/27 07:12:38;;;;;;;11.80;6.70;;;30.00;1.00;;;;;;4994626;28;20183;-69
2023/05/27 07:15:08;;;;;;;8.03;7.03;;;29.00;1.00;;;;;;5014428;28;20214;-69
2023/05/27 07:17:33;;;;;;;6.50;5.90;;;28.50;1.00;;;;;;5009561;28;20239;-69
2023/05/27 07:19:59;;;;;;;9.40;6.20;;;29.00;1.00;;;;;;5009047;28;20423;-69
2023/05/27 07:22:25;;;;;;;7.57;6.83;;;30.00;1.00;;;;;;5021266;28;20339;-69
2023/05/27 07:24:51;;;;;;;11.07;7.70;;;30.60;1.00;;;;;;5017363;28;20203;-69
2023/05/27 07:27:16;;;;;;;6.37;5.87;;;30.40;1.00;;;;;;5028504;28;20433;-68
2023/05/27 07:29:42;;;;;;;9.10;7.70;;;30.50;1.00;;;;;;5029172;28;20270;-69
2023/05/27 07:32:07;;;;;;;16.43;6.90;;;31.20;1.00;;;;;;5021783;28;20180;-69
2023/05/27 07:34:33;;;;;;;7.60;6.63;;;30.70;1.00;;;;;;5020599;28;20571;-70
2023/05/27 07:36:58;;;;;;;8.63;7.17;;;31.10;1.00;;;;;;5017379;28;20188;-70
2023/05/27 07:39:24;;;;;;;8.60;6.90;;;31.40;1.00;;;;;;5016073;28;20557;-69
2023/05/27 07:41:50;;;;;;;7.80;7.10;;;32.10;1.00;;;;;;5027122;28;20609;-70
2023/05/27 07:44:15;;;;;;;7.07;6.47;;;30.90;1.00;;;;;;5015065;28;20229;-68
2023/05/27 07:46:41;;;;;;;11.70;7.50;;;32.20;1.00;;;;;;5009181;28;20187;-70
2023/05/27 07:49:07;;;;;;;9.07;6.77;;;32.00;1.00;;;;;;5015815;28;20738;-70
2023/05/27 07:51:32;;;;;;;11.20;7.27;;;32.10;1.00;;;;;;4990902;28;20478;-70
2023/05/27 07:53:58;;;;;;;10.77;6.80;;;31.90;1.00;;;;;;5008130;28;20239;-70
2023/05/27 07:56:24;;;;;;;8.20;6.70;;;31.90;1.00;;;;;;4991497;28;20188;-70
2023/05/27 07:58:50;;;;;;;8.23;7.37;;;32.30;1.00;;;;;;4990833;28;20180;-70
2023/05/27 08:01:15;;;;;;;8.60;7.83;;;31.30;1.00;;;;;;5016966;28;20445;-70
2023/05/27 08:03:41;;;;;;;8.70;6.40;;;32.60;1.00;;;;;;5028135;28;20200;-70
2023/05/27 08:06:07;;;;;;;8.07;6.67;;;33.30;1.00;;;;;;5020842;28;20187;-70
2023/05/27 08:08:32;;;;;;;7.50;6.43;;;34.30;1.00;;;;;;5024476;28;20184;-69
2023/05/27 08:10:58;;;;;;;10.63;7.20;;;33.10;1.00;;;;;;5031663;28;20197;-69
2023/05/27 08:13:24;;;;;;;8.00;7.20;;;31.90;1.00;;;;;;5015266;28;20262;-70
2023/05/27 08:15:49;;;;;;;6.67;6.17;;;31.90;1.00;;;;;;5012135;28;20208;-70
2023/05/27 08:18:15;;;;;;;7.87;7.07;;;32.60;1.00;;;;;;5019889;28;20641;-69
2023/05/27 08:20:40;;;;;;;9.73;7.53;;;33.30;1.00;;;;;;5028687;28;20270;-69
2023/05/27 08:23:09;;;;;;;8.80;7.87;;;34.20;1.00;;;;;;5021843;28;20485;-69
2023/05/27 08:25:35;;;;;;;11.37;7.43;;;33.20;1.00;;;;;;5027359;28;20195;-69
2023/05/27 08:28:03;;;;;;;7.90;7.20;;;32.80;1.00;;;;;;5029575;28;20433;-69
2023/05/27 08:30:29;;;;;;;9.10;7.50;;;33.50;1.00;;;;;;5031626;28;20210;-68
2023/05/27 08:32:58;;;;;;;7.80;6.40;;;33.50;1.00;;;;;;5029143;28;20864;-69
2023/05/27 08:35:24;;;;;;;7.43;6.40;;;32.50;1.00;;;;;;5022385;28;20466;-69
2023/05/27 08:37:50;;;;;;;7.90;7.10;;;32.80;1.00;;;;;;5013241;28;20525;-69
2023/05/27 08:40:18;;;;;;;10.70;6.80;;;32.60;1.00;;;;;;5027667;28;20453;-69
2023/05/27 08:42:44;;;;;;;8.10;7.43;;;33.00;1.00;;;;;;5030085;28;20270;-69
2023/05/27 08:45:10;;;;;;;7.67;6.97;;;33.70;1.00;;;;;;5020185;28;20532;-69
2023/05/27 08:47:38;;;;;;;11.93;8.03;;;34.30;1.00;;;;;;5011981;28;20423;-69
2023/05/27 08:50:04;;;;;;;7.33;6.67;;;33.50;1.00;;;;;;5012307;28;20415;-69
2023/05/27 08:52:30;;;;;;;8.23;7.33;;;32.80;1.00;;;;;;5011797;28;20426;-69
2023/05/27 08:54:57;;;;;;;8.30;7.10;;;32.30;1.00;;;;;;5012012;28;20972;-69
2023/05/27 08:57:30;;;;;;;8.00;7.20;;;31.60;1.00;;;;;;5028412;28;20282;-69
2023/05/27 08:59:57;;;;;;;7.50;6.20;;;32.00;1.00;;;;;;5003635;28;20492;-69
2023/05/27 09:02:23;;;;;;;8.60;7.80;;;31.90;1.00;;;;;;5029494;28;20938;-69
2023/05/27 09:04:49;;;;;;;10.30;7.73;;;30.50;1.00;;;;;;5018547;28;20458;-69
2023/05/27 09:07:15;;;;;;;8.70;7.83;;;29.90;1.00;;;;;;5031514;28;20413;-69
2023/05/27 09:09:41;;;;;;;16.80;7.73;;;29.60;1.00;;;;;;5012510;28;20866;-71
2023/05/27 09:12:08;;;;;;;9.70;6.73;;;28.50;1.00;;;;;;5012563;28;20430;-69
2023/05/27 09:14:37;;;;;;;8.33;7.53;;;27.10;1.00;;;;;;5011297;28;20497;-69
2023/05/27 09:17:08;;;;;;;8.27;6.27;;;25.60;1.00;;;;;;5027595;28;20433;-69
2023/05/27 09:19:34;;;;;;;7.03;6.40;;;24.50;1.00;;;;;;5034660;28;20430;-69
2023/05/27 09:22:00;;;;;;;6.97;6.30;;;23.70;1.00;;;;;;5034613;28;20844;-69
2023/05/27 09:24:26;;;;;;;9.40;7.53;;;23.20;1.00;;;;;;5016045;28;20454;-69
2023/05/27 09:26:54;;;;;;;7.30;6.70;;;23.00;1.00;;;;;;5015260;28;20545;-69
2023/05/27 09:29:19;;;;;;;8.33;7.47;;;23.10;1.00;;;;;;5020223;28;20528;-70
2023/05/27 09:31:45;;;;;;;10.83;7.80;;;23.00;1.00;;;;;;5031286;28;20519;-70
2023/05/27 09:34:13;;;;;;;8.20;6.77;;;22.70;1.00;;;;;;5016676;28;20203;-70
2023/05/27 09:36:46;;;;;;;9.03;7.47;;;22.70;1.00;;;;;;5014889;28;20426;-70
2023/05/27 09:39:16;;;;;;;9.13;6.90;;;22.60;1.00;;;;;;5015248;28;20437;-70
2023/05/27 09:41:42;;;;;;;9.17;6.37;;;22.80;1.00;;;;;;5032535;28;20587;-69
2023/05/27 09:44:09;;;;;;;6.97;6.27;;;22.80;1.00;;;;;;5019420;28;20455;-69
2023/05/27 09:46:35;;;;;;;10.30;7.00;;;22.80;1.00;;;;;;5007325;28;20455;-69
2023/05/27 09:49:03;;;;;;;9.77;6.40;;;22.50;1.00;;;;;;5016128;28;20450;-68
2023/05/27 09:51:29;;;;;;;9.83;7.00;;;22.50;1.00;;;;;;5014816;28;20414;-68
2023/05/27 09:53:57;;;;;;;7.93;7.10;;;22.70;1.00;;;;;;5015062;28;20792;-68
2023/05/27 09:56:27;;;;;;;8.67;7.80;;;22.90;1.00;;;;;;5014891;28;20423;-69
2023/05/27 09:58:57;;;;;;;8.60;7.50;;;23.00;1.00;;;;;;5007764;28;20978;-69
2023/05/27 10:01:30;;;;;;;9.30;8.37;;;23.00;1.00;;;;;;5033566;28;20426;-69
2023/05/27 10:03:56;;;;;;;8.07;7.03;;;23.00;1.00;;;;;;5024643;28;20873;-69
2023/05/27 10:06:29;;;;;;;6.80;6.00;;;23.30;1.00;;;;;;5014537;28;20423;-69
2023/05/27 10:08:58;;;;;;;8.33;7.53;;;23.30;1.00;;;;;;5025749;28;20286;-69
2023/05/27 10:11:26;;;;;;;8.60;7.20;;;23.20;1.00;;;;;;5031090;28;20982;-69
2023/05/27 10:13:52;;;;;;;8.83;7.17;;;23.30;1.00;;;;;;5021562;28;20477;-69
2023/05/27 10:16:22;;;;;;;7.60;6.90;;;23.60;1.00;;;;;;5025544;28;21039;-69
2023/05/27 10:18:53;;;;;;;11.60;7.30;;;23.60;1.00;;;;;;5030318;28;20465;-69
2023/05/27 10:21:26;;;;;;;7.93;7.13;;;23.60;1.00;;;;;;5024837;28;20433;-69
2023/05/27 10:24:02;;;;;;;7.93;7.23;;;23.90;1.00;;;;;;5026045;28;20450;-69
2023/05/27 10:26:33;;;;;;;8.20;7.40;;;24.10;1.00;;;;;;5022913;28;20416;-69
2023/05/27 10:29:18;;;;;;;8.17;7.47;;;23.90;1.00;;;;;;5022678;28;20962;-70
2023/05/27 10:31:49;;;;;;;9.07;8.13;;;24.00;1.00;;;;;;5022430;28;20431;-70
2023/05/27 10:34:15;;;;;;;10.20;8.07;;;24.00;1.00;;;;;;5022056;28;20836;-70
2023/05/27 10:36:41;;;;;;;7.73;6.67;;;23.90;1.00;;;;;;5006826;28;20462;-70
2023/05/27 10:39:14;;;;;;;7.30;6.70;;;23.80;1.00;;;;;;5016960;28;20445;-70
2023/05/27 10:41:51;;;;;;;11.30;7.50;;;23.80;1.00;;;;;;5018739;28;20206;-70
2023/05/27 10:44:32;;;;;;;9.10;8.20;;;23.80;1.00;;;;;;5020993;28;20482;-70
2023/05/27 10:47:01;;;;;;;7.97;7.27;;;23.70;1.00;;;;;;5028159;28;20480;-70
2023/05/27 10:49:35;;;;;;;12.33;8.17;;;23.80;1.00;;;;;;5029458;28;20427;-70
2023/05/27 10:52:10;;;;;;;9.67;8.77;;;23.90;1.00;;;;;;5020541;28;20431;-70
2023/05/27 10:54:36;;;;;;;8.27;7.23;;;24.10;1.00;;;;;;5020358;28;20552;-70
2023/05/27 10:57:02;;;;;;;8.50;7.50;;;24.10;1.00;;;;;;5025166;28;20450;-71
2023/05/27 10:59:47;;;;;;;8.27;7.27;;;24.20;1.00;;;;;;5026014;28;20520;-71
2023/05/27 11:02:13;;;;;;;7.83;7.00;;;24.40;1.00;;;;;;5020966;28;20441;-70
2023/05/27 11:04:38;;;;;;;8.47;7.63;;;24.60;1.00;;;;;;5031391;28;20450;-69
2023/05/27 11:07:05;;;;;;;9.10;7.60;;;24.60;1.00;;;;;;5028107;28;20195;-69
2023/05/27 11:09:42;;;;;;;8.50;7.40;;;24.60;1.00;;;;;;5030199;28;20179;-69
2023/05/27 11:12:07;;;;;;;9.10;7.13;;;24.60;1.00;;;;;;5015485;28;20469;-69
2023/05/27 11:14:33;;;;;;;8.90;7.50;;;24.40;1.00;;;;;;5012496;28;21010;-69
2023/05/27 11:16:59;;;;;;;8.57;7.70;;;24.40;1.00;;;;;;5013455;28;20188;-69
2023/05/27 11:19:24;;;;;;;7.77;6.50;;;24.30;1.00;;;;;;5012960;28;20614;-69
2023/05/27 11:21:50;;;;;;;8.93;7.33;;;24.40;1.00;;;;;;5026498;28;20703;-69
2023/05/27 11:24:17;;;;;;;8.87;7.57;;;24.50;1.00;;;;;;5032320;28;20203;-69
2023/05/27 11:26:46;;;;;;;7.07;6.47;;;24.60;1.00;;;;;;5019780;28;20188;-69
2023/05/27 11:29:11;;;;;;;7.63;6.93;;;24.60;1.00;;;;;;5012597;28;20422;-69
2023/05/27 11:31:40;;;;;;;9.70;7.50;;;24.70;1.00;;;;;;5015041;28;20434;-69
2023/05/27 11:34:15;;;;;;;7.17;6.60;;;24.90;1.00;;;;;;4991391;28;20208;-69
2023/05/27 11:36:41;;;;;;;7.80;6.50;;;25.00;1.00;;;;;;5012422;28;20421;-69
2023/05/27 11:39:12;;;;;;;7.77;6.87;;;25.20;1.00;;;;;;5013494;28;21006;-69
2023/05/27 11:41:48;;;;;;;7.53;6.80;;;25.00;1.00;;;;;;5023212;28;20429;-69
2023/05/27 11:44:14;;;;;;;8.13;7.40;;;25.00;1.00;;;;;;5032347;28;20421;-69
2023/05/27 11:46:42;;;;;;;8.20;7.40;;;25.00;1.00;;;;;;4996585;28;20850;-69
2023/05/27 11:49:12;;;;;;;8.47;7.67;;;25.00;1.00;;;;;;5012402;28;20258;-69
2023/05/27 11:51:40;;;;;;;8.60;7.53;;;25.00;1.00;;;;;;5006983;28;20471;-69
2023/05/27 11:54:06;;;;;;;8.10;7.30;;;25.00;1.00;;;;;;5031978;28;20438;-73
2023/05/27 11:56:32;;;;;;;8.37;7.57;;;25.10;1.00;;;;;;5014034;28;20422;-69
2023/05/27 11:58:58;;;;;;;8.37;7.40;;;25.00;1.00;;;;;;5015937;28;20475;-71
2023/05/27 12:01:25;;;;;;;10.70;7.57;;;24.90;1.00;;;;;;5013290;28;20426;-69
2023/05/27 12:03:51;;;;;;;7.67;6.87;;;24.80;1.00;;;;;;5007559;28;20926;-70
2023/05/27 12:06:17;;;;;;;8.67;7.87;;;24.60;1.00;;;;;;5014037;28;20514;-70
2023/05/27 12:08:43;;;;;;;12.80;7.83;;;24.60;1.00;;;;;;5031743;28;20500;-70
2023/05/27 12:11:09;;;;;;;8.97;7.50;;;24.60;1.00;;;;;;5008093;28;20199;-70
2023/05/27 12:13:35;;;;;;;7.63;6.93;;;24.50;1.00;;;;;;4992589;28;21006;-70
2023/05/27 12:16:02;;;;;;;11.33;9.50;;;24.50;1.00;;;;;;4992987;28;20557;-70
2023/05/27 12:18:28;;;;;;;10.23;7.20;;;24.50;1.00;;;;;;4992957;28;20173;-70
2023/05/27 12:20:54;;;;;;;7.60;7.00;;;24.60;1.00;;;;;;4992889;28;20522;-70
2023/05/27 12:23:20;;;;;;;9.20;6.80;;;24.70;1.00;;;;;;4992334;28;20243;-70
2023/05/27 12:25:45;;;;;;;7.47;6.80;;;25.10;1.00;;;;;;4992646;28;20189;-70
2023/05/27 12:28:11;;;;;;;8.77;7.43;;;25.20;1.00;;;;;;4992486;28;20220;-70
2023/05/27 12:30:37;;;;;;;8.40;7.47;;;25.30;1.00;;;;;;4992596;28;20189;-70
2023/05/27 12:33:03;;;;;;;8.10;7.50;;;25.20;1.00;;;;;;4992190;28;20184;-70
2023/05/27 12:35:30;;;;;;;9.27;7.47;;;25.40;1.00;;;;;;4974923;28;20491;-72
2023/05/27 12:37:55;;;;;;;7.50;6.80;;;25.60;1.00;;;;;;4992562;28;20466;-72
2023/05/27 12:40:21;;;;;;;9.30;8.33;;;25.60;1.00;;;;;;4992461;28;20408;-70
2023/05/27 12:42:47;;;;;;;9.97;6.70;;;25.30;1.00;;;;;;4992316;28;20271;-70
2023/05/27 12:45:13;;;;;;;8.90;7.53;;;25.00;1.00;;;;;;4992723;28;20200;-70
2023/05/27 12:47:39;;;;;;;7.87;6.63;;;24.90;1.00;;;;;;4992652;28;20415;-70
2023/05/27 12:50:05;;;;;;;8.13;6.47;;;25.00;1.00;;;;;;4992374;28;20180;-70